sensor_id;sensor_type;location;lat;lon;timestamp;temperature;humidity
59572;DHT22;70118;45.638;11.714;2023-08-06T00:00:40;26.70;83.10
59572;DHT22;70118;45.638;11.714;2023-08-06T00:03:06;26.70;82.90
59572;DHT22;70118;45.638;11.714;2023-08-06T00:05:32;26.70;83.10
59572;DHT22;70118;45.638;11.714;2023-08-06T00:07:57;26.80;83.00
59572;DHT22;70118;45.638;11.714;2023-08-06T00:10:23;26.70;83.00
59572;DHT22;70118;45.638;11.714;2023-08-06T00:12:49;26.70;83.00
59572;DHT22;70118;45.638;11.714;2023-08-06T00:15:15;26.80;83.10
59572;DHT22;70118;45.638;11.714;2023-08-06T00:17:41;26.70;83.10
59572;DHT22;70118;45.638;11.714;2023-08-06T00:20:07;26.80;83.10
59572;DHT22;70118;45.638;11.714;2023-08-06T00:22:35;26.70;83.10
59572;DHT22;70118;45.638;11.714;2023-08-06T00:25:01;26.70;83.20
59572;DHT22;70118;45.638;11.714;2023-08-06T00:27:27;26.70;83.10
59572;DHT22;70118;45.638;11.714;2023-08-06T00:29:53;26.80;83.10
59572;DHT22;70118;45.638;11.714;2023-08-06T00:32:19;26.70;83.00
59572;DHT22;70118;45.638;11.714;2023-08-06T00:34:45;26.70;83.00
59572;DHT22;70118;45.638;11.714;2023-08-06T00:37:11;26.70;83.00
59572;DHT22;70118;45.638;11.714;2023-08-06T00:39:37;26.70;83.00
59572;DHT22;70118;45.638;11.714;2023-08-06T00:42:03;26.60;83.10
59572;DHT22;70118;45.638;11.714;2023-08-06T00:44:29;26.70;83.00
59572;DHT22;70118;45.638;11.714;2023-08-06T00:46:55;26.70;83.10
59572;DHT22;70118;45.638;11.714;2023-08-06T00:49:21;26.60;83.20
59572;DHT22;70118;45.638;11.714;2023-08-06T00:51:47;26.70;83.10
59572;DHT22;70118;45.638;11.714;2023-08-06T00:54:14;26.70;83.00
59572;DHT22;70118;45.638;11.714;2023-08-06T00:56:41;26.70;83.20
59572;DHT22;70118;45.638;11.714;2023-08-06T00:59:08;26.70;83.20
59572;DHT22;70118;45.638;11.714;2023-08-06T01:01:34;26.60;83.10
59572;DHT22;70118;45.638;11.714;2023-08-06T01:04:00;26.60;83.10
59572;DHT22;70118;45.638;11.714;2023-08-06T01:09:33;26.60;83.10
59572;DHT22;70118;45.638;11.714;2023-08-06T01:13:05;26.70;83.10
59572;DHT22;70118;45.638;11.714;2023-08-06T01:15:12;26.70;83.10
59572;DHT22;70118;45.638;11.714;2023-08-06T01:17:40;26.70;83.30
59572;DHT22;70118;45.638;11.714;2023-08-06T01:20:06;26.70;83.10
59572;DHT22;70118;45.638;11.714;2023-08-06T01:22:32;26.70;83.10
59572;DHT22;70118;45.638;11.714;2023-08-06T01:24:58;26.60;83.20
59572;DHT22;70118;45.638;11.714;2023-08-06T01:30:34;26.60;83.20
59572;DHT22;70118;45.638;11.714;2023-08-06T01:32:57;26.60;83.30
59572;DHT22;70118;45.638;11.714;2023-08-06T01:35:25;26.70;83.10
59572;DHT22;70118;45.638;11.714;2023-08-06T01:37:52;26.70;83.20
59572;DHT22;70118;45.638;11.714;2023-08-06T01:40:18;26.60;83.30
59572;DHT22;70118;45.638;11.714;2023-08-06T01:42:44;26.60;83.20
59572;DHT22;70118;45.638;11.714;2023-08-06T01:45:10;26.60;83.30
59572;DHT22;70118;45.638;11.714;2023-08-06T01:47:36;26.60;83.20
59572;DHT22;70118;45.638;11.714;2023-08-06T01:50:02;26.70;83.20
59572;DHT22;70118;45.638;11.714;2023-08-06T01:52:28;26.60;83.30
59572;DHT22;70118;45.638;11.714;2023-08-06T01:54:55;26.70;83.30
59572;DHT22;70118;45.638;11.714;2023-08-06T01:57:21;26.70;83.30
59572;DHT22;70118;45.638;11.714;2023-08-06T01:59:47;26.60;83.10
59572;DHT22;70118;45.638;11.714;2023-08-06T02:02:12;26.70;83.30
59572;DHT22;70118;45.638;11.714;2023-08-06T02:04:38;26.60;83.30
59572;DHT22;70118;45.638;11.714;2023-08-06T02:07:04;26.60;83.30
59572;DHT22;70118;45.638;11.714;2023-08-06T02:09:30;26.70;83.30
59572;DHT22;70118;45.638;11.714;2023-08-06T02:11:56;26.60;83.40
59572;DHT22;70118;45.638;11.714;2023-08-06T02:14:22;26.60;83.20
59572;DHT22;70118;45.638;11.714;2023-08-06T02:16:48;26.60;83.40
59572;DHT22;70118;45.638;11.714;2023-08-06T02:19:15;26.60;83.30
59572;DHT22;70118;45.638;11.714;2023-08-06T02:21:41;26.70;83.40
59572;DHT22;70118;45.638;11.714;2023-08-06T02:24:06;26.60;83.30
59572;DHT22;70118;45.638;11.714;2023-08-06T02:26:32;26.60;83.30
59572;DHT22;70118;45.638;11.714;2023-08-06T02:28:58;26.60;83.30
59572;DHT22;70118;45.638;11.714;2023-08-06T02:31:24;26.60;83.30
59572;DHT22;70118;45.638;11.714;2023-08-06T02:33:50;26.60;83.10
59572;DHT22;70118;45.638;11.714;2023-08-06T02:36:16;26.70;83.20
59572;DHT22;70118;45.638;11.714;2023-08-06T02:38:41;26.60;83.30
59572;DHT22;70118;45.638;11.714;2023-08-06T02:41:07;26.60;83.30
59572;DHT22;70118;45.638;11.714;2023-08-06T02:43:33;26.60;83.30
59572;DHT22;70118;45.638;11.714;2023-08-06T02:46:00;26.60;83.20
59572;DHT22;70118;45.638;11.714;2023-08-06T02:48:26;26.60;83.30
59572;DHT22;70118;45.638;11.714;2023-08-06T02:50:52;26.60;83.30
59572;DHT22;70118;45.638;11.714;2023-08-06T02:53:18;26.60;83.40
59572;DHT22;70118;45.638;11.714;2023-08-06T02:55:47;26.60;83.40
59572;DHT22;70118;45.638;11.714;2023-08-06T02:58:16;26.60;83.50
59572;DHT22;70118;45.638;11.714;2023-08-06T03:00:43;26.50;83.50
59572;DHT22;70118;45.638;11.714;2023-08-06T03:03:09;26.60;83.60
59572;DHT22;70118;45.638;11.714;2023-08-06T03:05:35;26.60;83.30
59572;DHT22;70118;45.638;11.714;2023-08-06T03:08:01;26.50;83.40
59572;DHT22;70118;45.638;11.714;2023-08-06T03:10:27;26.60;83.50
59572;DHT22;70118;45.638;11.714;2023-08-06T03:12:53;26.60;83.50
59572;DHT22;70118;45.638;11.714;2023-08-06T03:15:19;26.60;83.40
59572;DHT22;70118;45.638;11.714;2023-08-06T03:17:45;26.50;83.40
59572;DHT22;70118;45.638;11.714;2023-08-06T03:20:10;26.60;83.40
59572;DHT22;70118;45.638;11.714;2023-08-06T03:22:36;26.50;83.50
59572;DHT22;70118;45.638;11.714;2023-08-06T03:25:03;26.60;83.50
59572;DHT22;70118;45.638;11.714;2023-08-06T03:27:29;26.60;83.40
59572;DHT22;70118;45.638;11.714;2023-08-06T03:29:54;26.60;83.40
59572;DHT22;70118;45.638;11.714;2023-08-06T03:32:20;26.60;83.50
59572;DHT22;70118;45.638;11.714;2023-08-06T03:34:46;26.60;83.40
59572;DHT22;70118;45.638;11.714;2023-08-06T03:37:12;26.60;83.40
59572;DHT22;70118;45.638;11.714;2023-08-06T03:39:38;26.50;83.30
59572;DHT22;70118;45.638;11.714;2023-08-06T03:42:04;26.60;83.30
59572;DHT22;70118;45.638;11.714;2023-08-06T03:44:30;26.50;83.30
59572;DHT22;70118;45.638;11.714;2023-08-06T03:46:56;26.60;83.40
59572;DHT22;70118;45.638;11.714;2023-08-06T03:49:22;26.50;83.20
59572;DHT22;70118;45.638;11.714;2023-08-06T03:51:48;26.60;83.20
59572;DHT22;70118;45.638;11.714;2023-08-06T03:54:13;26.60;83.30
59572;DHT22;70118;45.638;11.714;2023-08-06T03:56:39;26.50;83.30
59572;DHT22;70118;45.638;11.714;2023-08-06T03:59:05;26.50;83.30
59572;DHT22;70118;45.638;11.714;2023-08-06T04:01:31;26.50;83.40
59572;DHT22;70118;45.638;11.714;2023-08-06T04:03:57;26.60;83.20
59572;DHT22;70118;45.638;11.714;2023-08-06T04:06:23;26.50;83.20
59572;DHT22;70118;45.638;11.714;2023-08-06T04:08:49;26.60;83.30
59572;DHT22;70118;45.638;11.714;2023-08-06T04:11:14;26.60;83.30
59572;DHT22;70118;45.638;11.714;2023-08-06T04:13:43;26.60;83.40
59572;DHT22;70118;45.638;11.714;2023-08-06T04:16:09;26.60;83.10
59572;DHT22;70118;45.638;11.714;2023-08-06T04:18:35;26.50;83.40
59572;DHT22;70118;45.638;11.714;2023-08-06T04:21:02;26.50;83.30
59572;DHT22;70118;45.638;11.714;2023-08-06T04:23:28;26.50;83.20
59572;DHT22;70118;45.638;11.714;2023-08-06T04:25:57;26.50;83.20
59572;DHT22;70118;45.638;11.714;2023-08-06T04:28:22;26.40;83.30
59572;DHT22;70118;45.638;11.714;2023-08-06T04:30:48;26.40;83.30
59572;DHT22;70118;45.638;11.714;2023-08-06T04:33:14;26.50;83.20
59572;DHT22;70118;45.638;11.714;2023-08-06T04:35:41;26.50;83.40
59572;DHT22;70118;45.638;11.714;2023-08-06T04:38:06;26.40;83.30
59572;DHT22;70118;45.638;11.714;2023-08-06T04:40:36;26.50;83.50
59572;DHT22;70118;45.638;11.714;2023-08-06T04:43:02;26.50;83.40
59572;DHT22;70118;45.638;11.714;2023-08-06T04:45:28;26.50;83.40
59572;DHT22;70118;45.638;11.714;2023-08-06T04:47:54;26.50;83.30
59572;DHT22;70118;45.638;11.714;2023-08-06T04:50:20;26.50;83.40
59572;DHT22;70118;45.638;11.714;2023-08-06T04:52:46;26.50;83.30
59572;DHT22;70118;45.638;11.714;2023-08-06T04:55:12;26.60;83.30
59572;DHT22;70118;45.638;11.714;2023-08-06T04:57:38;26.50;83.00
59572;DHT22;70118;45.638;11.714;2023-08-06T05:00:04;26.40;83.20
59572;DHT22;70118;45.638;11.714;2023-08-06T05:02:31;26.50;83.20
59572;DHT22;70118;45.638;11.714;2023-08-06T05:05:00;26.50;83.30
59572;DHT22;70118;45.638;11.714;2023-08-06T05:07:26;26.50;83.10
59572;DHT22;70118;45.638;11.714;2023-08-06T05:09:55;26.50;83.10
59572;DHT22;70118;45.638;11.714;2023-08-06T05:12:24;26.50;83.10
59572;DHT22;70118;45.638;11.714;2023-08-06T05:14:51;26.50;83.00
59572;DHT22;70118;45.638;11.714;2023-08-06T05:17:22;26.60;82.80
59572;DHT22;70118;45.638;11.714;2023-08-06T05:19:48;26.50;82.90
59572;DHT22;70118;45.638;11.714;2023-08-06T05:22:14;26.50;82.70
59572;DHT22;70118;45.638;11.714;2023-08-06T05:24:40;26.60;83.10
59572;DHT22;70118;45.638;11.714;2023-08-06T05:27:06;26.60;83.10
59572;DHT22;70118;45.638;11.714;2023-08-06T05:29:32;26.50;83.20
59572;DHT22;70118;45.638;11.714;2023-08-06T05:31:57;26.60;83.10
59572;DHT22;70118;45.638;11.714;2023-08-06T05:34:23;26.60;83.10
59572;DHT22;70118;45.638;11.714;2023-08-06T05:36:49;26.60;83.10
59572;DHT22;70118;45.638;11.714;2023-08-06T05:39:15;26.60;83.00
59572;DHT22;70118;45.638;11.714;2023-08-06T05:41:41;26.60;83.00
59572;DHT22;70118;45.638;11.714;2023-08-06T05:44:08;26.70;83.00
59572;DHT22;70118;45.638;11.714;2023-08-06T05:46:34;26.60;83.00
59572;DHT22;70118;45.638;11.714;2023-08-06T05:49:00;26.60;83.00
59572;DHT22;70118;45.638;11.714;2023-08-06T05:51:27;26.70;82.90
59572;DHT22;70118;45.638;11.714;2023-08-06T05:53:53;26.60;82.90
59572;DHT22;70118;45.638;11.714;2023-08-06T05:56:19;26.60;82.90
59572;DHT22;70118;45.638;11.714;2023-08-06T05:58:45;26.70;82.80
59572;DHT22;70118;45.638;11.714;2023-08-06T06:01:13;26.80;82.80
59572;DHT22;70118;45.638;11.714;2023-08-06T06:03:39;26.70;82.70
59572;DHT22;70118;45.638;11.714;2023-08-06T06:06:04;26.80;82.70
59572;DHT22;70118;45.638;11.714;2023-08-06T06:08:30;26.80;82.80
59572;DHT22;70118;45.638;11.714;2023-08-06T06:10:56;26.70;82.80
59572;DHT22;70118;45.638;11.714;2023-08-06T06:13:22;26.70;82.80
59572;DHT22;70118;45.638;11.714;2023-08-06T06:15:48;26.70;82.80
59572;DHT22;70118;45.638;11.714;2023-08-06T06:18:14;26.70;82.80
59572;DHT22;70118;45.638;11.714;2023-08-06T06:20:40;26.80;82.70
59572;DHT22;70118;45.638;11.714;2023-08-06T06:23:06;26.80;82.80
59572;DHT22;70118;45.638;11.714;2023-08-06T06:25:32;26.80;82.80
59572;DHT22;70118;45.638;11.714;2023-08-06T06:27:57;26.80;82.80
59572;DHT22;70118;45.638;11.714;2023-08-06T06:30:24;26.80;82.60
59572;DHT22;70118;45.638;11.714;2023-08-06T06:32:50;26.70;82.70
59572;DHT22;70118;45.638;11.714;2023-08-06T06:35:16;26.90;82.60
59572;DHT22;70118;45.638;11.714;2023-08-06T06:37:42;26.80;82.90
59572;DHT22;70118;45.638;11.714;2023-08-06T06:40:08;26.80;82.80
59572;DHT22;70118;45.638;11.714;2023-08-06T06:42:34;26.90;82.90
59572;DHT22;70118;45.638;11.714;2023-08-06T06:44:59;26.90;82.80
59572;DHT22;70118;45.638;11.714;2023-08-06T06:47:26;26.80;82.90
59572;DHT22;70118;45.638;11.714;2023-08-06T06:49:51;26.90;82.90
59572;DHT22;70118;45.638;11.714;2023-08-06T06:52:17;26.90;83.00
59572;DHT22;70118;45.638;11.714;2023-08-06T06:54:43;26.90;83.00
59572;DHT22;70118;45.638;11.714;2023-08-06T06:57:09;26.90;82.80
59572;DHT22;70118;45.638;11.714;2023-08-06T06:59:35;27.00;82.80
59572;DHT22;70118;45.638;11.714;2023-08-06T07:02:02;27.00;82.90
59572;DHT22;70118;45.638;11.714;2023-08-06T07:04:29;26.90;82.80
59572;DHT22;70118;45.638;11.714;2023-08-06T07:06:58;27.00;82.90
59572;DHT22;70118;45.638;11.714;2023-08-06T07:09:24;27.00;82.90
59572;DHT22;70118;45.638;11.714;2023-08-06T07:11:49;27.00;82.90
59572;DHT22;70118;45.638;11.714;2023-08-06T07:14:15;26.90;83.00
59572;DHT22;70118;45.638;11.714;2023-08-06T07:16:41;26.90;83.00
59572;DHT22;70118;45.638;11.714;2023-08-06T07:19:07;27.00;83.10
59572;DHT22;70118;45.638;11.714;2023-08-06T07:21:33;27.00;82.90
59572;DHT22;70118;45.638;11.714;2023-08-06T07:23:59;26.90;83.00
59572;DHT22;70118;45.638;11.714;2023-08-06T07:26:26;27.00;83.00
59572;DHT22;70118;45.638;11.714;2023-08-06T07:28:53;27.00;82.80
59572;DHT22;70118;45.638;11.714;2023-08-06T07:31:19;27.00;82.80
59572;DHT22;70118;45.638;11.714;2023-08-06T07:33:45;27.10;82.70
59572;DHT22;70118;45.638;11.714;2023-08-06T07:36:13;27.00;82.70
59572;DHT22;70118;45.638;11.714;2023-08-06T07:38:40;27.00;82.70
59572;DHT22;70118;45.638;11.714;2023-08-06T07:41:06;27.00;82.70
59572;DHT22;70118;45.638;11.714;2023-08-06T07:43:33;27.00;82.90
59572;DHT22;70118;45.638;11.714;2023-08-06T07:46:01;27.00;82.90
59572;DHT22;70118;45.638;11.714;2023-08-06T07:48:28;27.00;82.80
59572;DHT22;70118;45.638;11.714;2023-08-06T07:50:55;27.00;83.00
59572;DHT22;70118;45.638;11.714;2023-08-06T07:53:24;27.00;82.80
59572;DHT22;70118;45.638;11.714;2023-08-06T07:55:53;27.10;82.90
59572;DHT22;70118;45.638;11.714;2023-08-06T07:58:20;27.00;82.90
59572;DHT22;70118;45.638;11.714;2023-08-06T08:00:46;27.00;83.00
59572;DHT22;70118;45.638;11.714;2023-08-06T08:03:14;27.10;83.00
59572;DHT22;70118;45.638;11.714;2023-08-06T08:05:41;27.10;82.90
59572;DHT22;70118;45.638;11.714;2023-08-06T08:08:07;27.10;82.70
59572;DHT22;70118;45.638;11.714;2023-08-06T08:10:33;27.10;82.80
59572;DHT22;70118;45.638;11.714;2023-08-06T08:13:01;27.00;82.80
59572;DHT22;70118;45.638;11.714;2023-08-06T08:15:28;27.10;82.80
59572;DHT22;70118;45.638;11.714;2023-08-06T08:17:55;27.10;82.90
59572;DHT22;70118;45.638;11.714;2023-08-06T08:20:21;27.00;82.70
59572;DHT22;70118;45.638;11.714;2023-08-06T08:22:47;27.10;82.70
59572;DHT22;70118;45.638;11.714;2023-08-06T08:25:13;27.10;82.90
59572;DHT22;70118;45.638;11.714;2023-08-06T08:27:39;27.10;82.90
59572;DHT22;70118;45.638;11.714;2023-08-06T08:30:06;27.20;83.00
59572;DHT22;70118;45.638;11.714;2023-08-06T08:32:33;27.10;82.90
59572;DHT22;70118;45.638;11.714;2023-08-06T08:34:59;27.10;83.10
59572;DHT22;70118;45.638;11.714;2023-08-06T08:37:24;27.10;82.90
59572;DHT22;70118;45.638;11.714;2023-08-06T08:39:50;27.20;82.80
59572;DHT22;70118;45.638;11.714;2023-08-06T08:42:17;27.10;83.00
59572;DHT22;70118;45.638;11.714;2023-08-06T08:44:45;27.20;82.90
59572;DHT22;70118;45.638;11.714;2023-08-06T08:47:12;27.10;82.90
59572;DHT22;70118;45.638;11.714;2023-08-06T08:49:38;27.10;82.90
59572;DHT22;70118;45.638;11.714;2023-08-06T08:52:06;27.10;82.90
59572;DHT22;70118;45.638;11.714;2023-08-06T08:54:35;27.20;82.90
59572;DHT22;70118;45.638;11.714;2023-08-06T08:57:03;27.20;82.90
59572;DHT22;70118;45.638;11.714;2023-08-06T08:59:29;27.20;82.80
59572;DHT22;70118;45.638;11.714;2023-08-06T09:01:56;27.20;82.70
59572;DHT22;70118;45.638;11.714;2023-08-06T09:04:23;27.20;82.40
59572;DHT22;70118;45.638;11.714;2023-08-06T09:06:57;27.20;82.80
59572;DHT22;70118;45.638;11.714;2023-08-06T09:09:34;27.20;82.70
59572;DHT22;70118;45.638;11.714;2023-08-06T09:12:12;27.20;82.50
59572;DHT22;70118;45.638;11.714;2023-08-06T09:14:41;27.10;82.10
59572;DHT22;70118;45.638;11.714;2023-08-06T09:17:10;27.20;82.00
59572;DHT22;70118;45.638;11.714;2023-08-06T09:19:37;27.20;81.90
59572;DHT22;70118;45.638;11.714;2023-08-06T09:22:03;27.20;81.70
59572;DHT22;70118;45.638;11.714;2023-08-06T09:24:40;27.10;81.50
59572;DHT22;70118;45.638;11.714;2023-08-06T09:27:13;27.10;81.30
59572;DHT22;70118;45.638;11.714;2023-08-06T09:29:45;27.10;80.70
59572;DHT22;70118;45.638;11.714;2023-08-06T09:32:13;27.10;80.80
59572;DHT22;70118;45.638;11.714;2023-08-06T09:34:57;27.10;80.80
59572;DHT22;70118;45.638;11.714;2023-08-06T09:37:47;27.10;80.60
59572;DHT22;70118;45.638;11.714;2023-08-06T09:40:29;27.00;80.70
59572;DHT22;70118;45.638;11.714;2023-08-06T09:42:55;27.00;80.20
59572;DHT22;70118;45.638;11.714;2023-08-06T09:45:22;27.00;80.40
59572;DHT22;70118;45.638;11.714;2023-08-06T09:47:50;27.00;80.40
59572;DHT22;70118;45.638;11.714;2023-08-06T09:50:19;27.10;80.30
59572;DHT22;70118;45.638;11.714;2023-08-06T09:52:51;27.00;80.10
59572;DHT22;70118;45.638;11.714;2023-08-06T09:55:18;27.10;80.10
59572;DHT22;70118;45.638;11.714;2023-08-06T09:57:44;27.10;80.00
59572;DHT22;70118;45.638;11.714;2023-08-06T10:00:11;27.00;80.00
59572;DHT22;70118;45.638;11.714;2023-08-06T10:02:39;27.00;79.80
59572;DHT22;70118;45.638;11.714;2023-08-06T10:05:07;27.00;79.70
59572;DHT22;70118;45.638;11.714;2023-08-06T10:07:33;27.00;79.80
59572;DHT22;70118;45.638;11.714;2023-08-06T10:09:59;27.00;79.90
59572;DHT22;70118;45.638;11.714;2023-08-06T10:12:28;27.00;79.70
59572;DHT22;70118;45.638;11.714;2023-08-06T10:14:57;27.00;79.70
59572;DHT22;70118;45.638;11.714;2023-08-06T10:17:25;27.00;79.60
59572;DHT22;70118;45.638;11.714;2023-08-06T10:19:52;27.00;79.80
59572;DHT22;70118;45.638;11.714;2023-08-06T10:22:22;26.90;79.70
59572;DHT22;70118;45.638;11.714;2023-08-06T10:24:53;26.90;79.50
59572;DHT22;70118;45.638;11.714;2023-08-06T10:27:21;27.00;79.40
59572;DHT22;70118;45.638;11.714;2023-08-06T10:29:47;27.00;79.60
59572;DHT22;70118;45.638;11.714;2023-08-06T10:32:15;26.90;79.60
59572;DHT22;70118;45.638;11.714;2023-08-06T10:34:59;27.00;79.40
59572;DHT22;70118;45.638;11.714;2023-08-06T10:37:38;26.90;79.00
59572;DHT22;70118;45.638;11.714;2023-08-06T10:40:06;26.90;79.10
59572;DHT22;70118;45.638;11.714;2023-08-06T10:42:33;26.90;79.20
59572;DHT22;70118;45.638;11.714;2023-08-06T10:45:16;26.90;79.20
59572;DHT22;70118;45.638;11.714;2023-08-06T10:47:43;26.90;78.90
59572;DHT22;70118;45.638;11.714;2023-08-06T10:50:14;26.80;79.10
59572;DHT22;70118;45.638;11.714;2023-08-06T10:52:44;26.90;79.00
59572;DHT22;70118;45.638;11.714;2023-08-06T10:55:10;26.90;79.10
59572;DHT22;70118;45.638;11.714;2023-08-06T10:57:36;26.90;79.00
59572;DHT22;70118;45.638;11.714;2023-08-06T11:00:07;26.90;79.00
59572;DHT22;70118;45.638;11.714;2023-08-06T11:02:36;26.90;78.70
59572;DHT22;70118;45.638;11.714;2023-08-06T11:05:10;26.90;78.80
59572;DHT22;70118;45.638;11.714;2023-08-06T11:07:37;26.90;78.70
59572;DHT22;70118;45.638;11.714;2023-08-06T11:10:04;26.90;78.80
59572;DHT22;70118;45.638;11.714;2023-08-06T11:12:31;26.90;78.70
59572;DHT22;70118;45.638;11.714;2023-08-06T11:14:57;26.80;78.80
59572;DHT22;70118;45.638;11.714;2023-08-06T11:17:24;26.80;78.70
59572;DHT22;70118;45.638;11.714;2023-08-06T11:19:50;26.80;78.60
59572;DHT22;70118;45.638;11.714;2023-08-06T11:22:16;26.90;78.60
59572;DHT22;70118;45.638;11.714;2023-08-06T11:24:43;26.80;78.60
59572;DHT22;70118;45.638;11.714;2023-08-06T11:27:15;26.80;78.50
59572;DHT22;70118;45.638;11.714;2023-08-06T11:29:42;26.80;78.40
59572;DHT22;70118;45.638;11.714;2023-08-06T11:32:09;26.90;78.40
59572;DHT22;70118;45.638;11.714;2023-08-06T11:34:36;26.80;78.50
59572;DHT22;70118;45.638;11.714;2023-08-06T11:37:06;26.90;78.50
59572;DHT22;70118;45.638;11.714;2023-08-06T11:39:36;26.90;78.30
59572;DHT22;70118;45.638;11.714;2023-08-06T11:42:03;26.80;78.40
59572;DHT22;70118;45.638;11.714;2023-08-06T11:44:31;26.80;78.20
59572;DHT22;70118;45.638;11.714;2023-08-06T11:47:02;26.80;78.40
59572;DHT22;70118;45.638;11.714;2023-08-06T11:52:23;26.90;78.20
59572;DHT22;70118;45.638;11.714;2023-08-06T11:55:03;26.80;78.00
59572;DHT22;70118;45.638;11.714;2023-08-06T11:57:33;26.80;78.10
59572;DHT22;70118;45.638;11.714;2023-08-06T12:00:13;26.90;78.40
59572;DHT22;70118;45.638;11.714;2023-08-06T12:02:40;26.90;78.10
59572;DHT22;70118;45.638;11.714;2023-08-06T12:05:13;26.80;78.30
59572;DHT22;70118;45.638;11.714;2023-08-06T12:07:44;26.90;78.30
59572;DHT22;70118;45.638;11.714;2023-08-06T12:10:11;26.80;78.20
59572;DHT22;70118;45.638;11.714;2023-08-06T12:12:38;26.80;78.30
59572;DHT22;70118;45.638;11.714;2023-08-06T12:15:05;26.80;78.20
59572;DHT22;70118;45.638;11.714;2023-08-06T12:17:35;26.70;78.20
59572;DHT22;70118;45.638;11.714;2023-08-06T12:20:01;26.80;78.20
59572;DHT22;70118;45.638;11.714;2023-08-06T12:22:28;26.80;78.20
59572;DHT22;70118;45.638;11.714;2023-08-06T12:24:57;26.80;78.20
59572;DHT22;70118;45.638;11.714;2023-08-06T12:27:22;26.90;78.20
59572;DHT22;70118;45.638;11.714;2023-08-06T12:29:48;26.80;78.20
59572;DHT22;70118;45.638;11.714;2023-08-06T12:32:14;26.80;78.30
59572;DHT22;70118;45.638;11.714;2023-08-06T12:34:42;26.80;78.50
59572;DHT22;70118;45.638;11.714;2023-08-06T12:37:08;26.80;78.60
59572;DHT22;70118;45.638;11.714;2023-08-06T12:39:35;26.90;78.90
59572;DHT22;70118;45.638;11.714;2023-08-06T12:42:02;26.90;78.90
59572;DHT22;70118;45.638;11.714;2023-08-06T12:44:29;26.90;79.00
59572;DHT22;70118;45.638;11.714;2023-08-06T12:46:56;26.90;78.80
59572;DHT22;70118;45.638;11.714;2023-08-06T12:49:23;26.90;79.00
59572;DHT22;70118;45.638;11.714;2023-08-06T12:51:51;26.90;78.90
59572;DHT22;70118;45.638;11.714;2023-08-06T12:54:22;26.90;79.10
59572;DHT22;70118;45.638;11.714;2023-08-06T12:56:48;26.90;78.90
59572;DHT22;70118;45.638;11.714;2023-08-06T12:59:16;26.90;79.00
59572;DHT22;70118;45.638;11.714;2023-08-06T13:01:43;26.90;79.10
59572;DHT22;70118;45.638;11.714;2023-08-06T13:04:09;26.90;79.10
59572;DHT22;70118;45.638;11.714;2023-08-06T13:06:36;26.90;79.20
59572;DHT22;70118;45.638;11.714;2023-08-06T13:09:09;27.00;79.10
59572;DHT22;70118;45.638;11.714;2023-08-06T13:11:36;27.00;79.30
59572;DHT22;70118;45.638;11.714;2023-08-06T13:14:11;27.00;79.20
59572;DHT22;70118;45.638;11.714;2023-08-06T13:16:39;27.00;79.40
59572;DHT22;70118;45.638;11.714;2023-08-06T13:19:06;27.00;79.30
59572;DHT22;70118;45.638;11.714;2023-08-06T13:24:02;27.00;79.30
59572;DHT22;70118;45.638;11.714;2023-08-06T13:26:29;27.00;79.40
59572;DHT22;70118;45.638;11.714;2023-08-06T13:28:57;27.10;79.20
59572;DHT22;70118;45.638;11.714;2023-08-06T13:31:23;27.00;79.30
59572;DHT22;70118;45.638;11.714;2023-08-06T13:33:50;27.10;79.30
59572;DHT22;70118;45.638;11.714;2023-08-06T13:36:16;26.90;79.50
59572;DHT22;70118;45.638;11.714;2023-08-06T13:38:43;27.00;79.40
59572;DHT22;70118;45.638;11.714;2023-08-06T13:41:10;27.10;79.30
59572;DHT22;70118;45.638;11.714;2023-08-06T13:43:36;27.10;79.40
59572;DHT22;70118;45.638;11.714;2023-08-06T13:46:02;27.10;79.50
59572;DHT22;70118;45.638;11.714;2023-08-06T13:48:28;27.10;79.40
59572;DHT22;70118;45.638;11.714;2023-08-06T13:50:54;27.10;79.40
59572;DHT22;70118;45.638;11.714;2023-08-06T13:53:20;27.10;79.40
59572;DHT22;70118;45.638;11.714;2023-08-06T13:55:46;27.10;79.50
59572;DHT22;70118;45.638;11.714;2023-08-06T13:58:12;27.10;79.50
59572;DHT22;70118;45.638;11.714;2023-08-06T14:00:38;27.10;79.50
59572;DHT22;70118;45.638;11.714;2023-08-06T14:03:04;27.10;79.50
59572;DHT22;70118;45.638;11.714;2023-08-06T14:05:31;27.00;79.80
59572;DHT22;70118;45.638;11.714;2023-08-06T14:07:57;27.10;79.50
59572;DHT22;70118;45.638;11.714;2023-08-06T14:10:22;27.10;79.50
59572;DHT22;70118;45.638;11.714;2023-08-06T14:12:49;27.10;79.70
59572;DHT22;70118;45.638;11.714;2023-08-06T14:15:16;27.20;79.60
59572;DHT22;70118;45.638;11.714;2023-08-06T14:17:46;27.10;79.60
59572;DHT22;70118;45.638;11.714;2023-08-06T14:20:16;27.20;79.70
59572;DHT22;70118;45.638;11.714;2023-08-06T14:22:43;27.20;79.60
59572;DHT22;70118;45.638;11.714;2023-08-06T14:25:12;27.10;79.70
59572;DHT22;70118;45.638;11.714;2023-08-06T14:27:44;27.20;79.70
59572;DHT22;70118;45.638;11.714;2023-08-06T14:30:12;27.10;79.70
59572;DHT22;70118;45.638;11.714;2023-08-06T14:32:39;27.10;79.70
59572;DHT22;70118;45.638;11.714;2023-08-06T14:35:05;27.20;79.70
59572;DHT22;70118;45.638;11.714;2023-08-06T14:37:32;27.10;79.70
59572;DHT22;70118;45.638;11.714;2023-08-06T14:39:58;27.20;79.80
59572;DHT22;70118;45.638;11.714;2023-08-06T14:42:24;27.20;79.90
59572;DHT22;70118;45.638;11.714;2023-08-06T14:44:50;27.20;79.90
59572;DHT22;70118;45.638;11.714;2023-08-06T14:47:16;27.20;79.80
59572;DHT22;70118;45.638;11.714;2023-08-06T14:49:42;27.30;79.80
59572;DHT22;70118;45.638;11.714;2023-08-06T14:52:08;27.20;79.90
59572;DHT22;70118;45.638;11.714;2023-08-06T14:54:34;27.20;80.00
59572;DHT22;70118;45.638;11.714;2023-08-06T14:57:00;27.20;79.90
59572;DHT22;70118;45.638;11.714;2023-08-06T14:59:25;27.20;79.90
59572;DHT22;70118;45.638;11.714;2023-08-06T15:01:51;27.20;79.90
59572;DHT22;70118;45.638;11.714;2023-08-06T15:04:17;27.20;79.90
59572;DHT22;70118;45.638;11.714;2023-08-06T15:06:44;27.30;79.90
59572;DHT22;70118;45.638;11.714;2023-08-06T15:09:10;27.20;79.90
59572;DHT22;70118;45.638;11.714;2023-08-06T15:11:37;27.20;79.90
59572;DHT22;70118;45.638;11.714;2023-08-06T15:14:03;27.20;79.90
59572;DHT22;70118;45.638;11.714;2023-08-06T15:16:33;27.20;80.20
59572;DHT22;70118;45.638;11.714;2023-08-06T15:19:00;27.20;80.00
59572;DHT22;70118;45.638;11.714;2023-08-06T15:21:26;27.30;80.10
59572;DHT22;70118;45.638;11.714;2023-08-06T15:23:53;27.20;80.20
59572;DHT22;70118;45.638;11.714;2023-08-06T15:26:20;27.30;80.20